sensor_id;sensor_type;location;lat;lon;timestamp;P1;durP1;ratioP1;P2;durP2;ratioP2
85544;SDS011;75982;52.834;13.846;2024-03-07T00:00:18;84.03;;;28.67;;
85544;SDS011;75982;52.834;13.846;2024-03-07T00:02:46;90.22;;;28.95;;
85544;SDS011;75982;52.834;13.846;2024-03-07T00:05:14;92.88;;;27.88;;
85544;SDS011;75982;52.834;13.846;2024-03-07T00:07:41;91.25;;;28.63;;
85544;SDS011;75982;52.834;13.846;2024-03-07T00:10:09;81.13;;;28.20;;
85544;SDS011;75982;52.834;13.846;2024-03-07T00:12:38;84.60;;;28.95;;
85544;SDS011;75982;52.834;13.846;2024-03-07T00:15:06;79.40;;;26.65;;
85544;SDS011;75982;52.834;13.846;2024-03-07T00:17:33;80.03;;;27.33;;
85544;SDS011;75982;52.834;13.846;2024-03-07T00:20:00;82.43;;;26.77;;
85544;SDS011;75982;52.834;13.846;2024-03-07T00:22:27;81.93;;;27.92;;
85544;SDS011;75982;52.834;13.846;2024-03-07T00:24:53;84.10;;;26.45;;
85544;SDS011;75982;52.834;13.846;2024-03-07T00:27:20;88.68;;;29.23;;
85544;SDS011;75982;52.834;13.846;2024-03-07T00:29:49;88.43;;;27.92;;
85544;SDS011;75982;52.834;13.846;2024-03-07T00:32:15;81.55;;;27.38;;
85544;SDS011;75982;52.834;13.846;2024-03-07T00:34:43;79.20;;;27.25;;
85544;SDS011;75982;52.834;13.846;2024-03-07T00:37:09;79.00;;;25.98;;
85544;SDS011;75982;52.834;13.846;2024-03-07T00:39:36;86.22;;;26.63;;
85544;SDS011;75982;52.834;13.846;2024-03-07T00:42:03;83.53;;;26.98;;
85544;SDS011;75982;52.834;13.846;2024-03-07T00:44:33;75.40;;;25.52;;
85544;SDS011;75982;52.834;13.846;2024-03-07T00:47:01;81.45;;;26.75;;
85544;SDS011;75982;52.834;13.846;2024-03-07T00:49:28;83.95;;;27.77;;
85544;SDS011;75982;52.834;13.846;2024-03-07T00:51:55;76.45;;;27.30;;
85544;SDS011;75982;52.834;13.846;2024-03-07T00:54:22;83.30;;;28.15;;
85544;SDS011;75982;52.834;13.846;2024-03-07T00:56:48;81.35;;;28.08;;
85544;SDS011;75982;52.834;13.846;2024-03-07T00:59:18;77.53;;;25.55;;
85544;SDS011;75982;52.834;13.846;2024-03-07T01:01:45;85.15;;;28.77;;
85544;SDS011;75982;52.834;13.846;2024-03-07T01:04:13;84.57;;;28.88;;
85544;SDS011;75982;52.834;13.846;2024-03-07T01:06:40;85.38;;;29.00;;
85544;SDS011;75982;52.834;13.846;2024-03-07T01:09:06;81.97;;;28.55;;
85544;SDS011;75982;52.834;13.846;2024-03-07T01:11:33;83.40;;;28.08;;
85544;SDS011;75982;52.834;13.846;2024-03-07T01:14:03;82.53;;;28.52;;
85544;SDS011;75982;52.834;13.846;2024-03-07T01:16:29;77.30;;;27.38;;
85544;SDS011;75982;52.834;13.846;2024-03-07T01:18:56;72.65;;;28.33;;
85544;SDS011;75982;52.834;13.846;2024-03-07T01:21:27;87.32;;;27.52;;
85544;SDS011;75982;52.834;13.846;2024-03-07T01:23:53;79.90;;;28.65;;
85544;SDS011;75982;52.834;13.846;2024-03-07T01:26:20;80.35;;;28.33;;
85544;SDS011;75982;52.834;13.846;2024-03-07T01:28:47;75.95;;;27.17;;
85544;SDS011;75982;52.834;13.846;2024-03-07T01:31:14;76.45;;;28.27;;
85544;SDS011;75982;52.834;13.846;2024-03-07T01:33:40;73.57;;;27.27;;
85544;SDS011;75982;52.834;13.846;2024-03-07T01:36:09;81.00;;;27.80;;
85544;SDS011;75982;52.834;13.846;2024-03-07T01:38:37;82.63;;;28.08;;
85544;SDS011;75982;52.834;13.846;2024-03-07T01:41:04;76.60;;;26.83;;
85544;SDS011;75982;52.834;13.846;2024-03-07T01:43:31;77.97;;;27.10;;
85544;SDS011;75982;52.834;13.846;2024-03-07T01:45:57;69.55;;;26.48;;
85544;SDS011;75982;52.834;13.846;2024-03-07T01:48:25;76.63;;;26.83;;
85544;SDS011;75982;52.834;13.846;2024-03-07T01:50:53;81.57;;;27.40;;
85544;SDS011;75982;52.834;13.846;2024-03-07T01:53:20;85.25;;;28.05;;
85544;SDS011;75982;52.834;13.846;2024-03-07T01:55:48;80.65;;;26.90;;
85544;SDS011;75982;52.834;13.846;2024-03-07T01:58:16;78.32;;;27.10;;
85544;SDS011;75982;52.834;13.846;2024-03-07T02:00:44;84.22;;;28.00;;
85544;SDS011;75982;52.834;13.846;2024-03-07T02:03:11;78.00;;;27.70;;
85544;SDS011;75982;52.834;13.846;2024-03-07T02:05:38;82.10;;;27.27;;
85544;SDS011;75982;52.834;13.846;2024-03-07T02:08:05;82.07;;;27.30;;
85544;SDS011;75982;52.834;13.846;2024-03-07T02:10:32;79.47;;;27.33;;
85544;SDS011;75982;52.834;13.846;2024-03-07T02:13:00;75.90;;;26.98;;
85544;SDS011;75982;52.834;13.846;2024-03-07T02:15:26;83.40;;;28.52;;
85544;SDS011;75982;52.834;13.846;2024-03-07T02:17:53;84.13;;;26.60;;
85544;SDS011;75982;52.834;13.846;2024-03-07T02:20:20;75.13;;;27.38;;
85544;SDS011;75982;52.834;13.846;2024-03-07T02:22:50;87.43;;;29.20;;
85544;SDS011;75982;52.834;13.846;2024-03-07T02:25:16;88.35;;;28.90;;
85544;SDS011;75982;52.834;13.846;2024-03-07T02:27:43;81.38;;;27.45;;
85544;SDS011;75982;52.834;13.846;2024-03-07T02:30:10;80.47;;;29.67;;
85544;SDS011;75982;52.834;13.846;2024-03-07T02:32:37;88.10;;;31.08;;
85544;SDS011;75982;52.834;13.846;2024-03-07T02:35:05;75.60;;;27.70;;
85544;SDS011;75982;52.834;13.846;2024-03-07T02:37:33;80.57;;;27.30;;
85544;SDS011;75982;52.834;13.846;2024-03-07T02:40:01;88.88;;;30.48;;
85544;SDS011;75982;52.834;13.846;2024-03-07T02:42:27;79.82;;;27.40;;
85544;SDS011;75982;52.834;13.846;2024-03-07T02:44:54;83.70;;;27.92;;
85544;SDS011;75982;52.834;13.846;2024-03-07T02:47:21;88.38;;;29.50;;
85544;SDS011;75982;52.834;13.846;2024-03-07T02:49:47;82.55;;;26.98;;
85544;SDS011;75982;52.834;13.846;2024-03-07T02:52:17;73.68;;;28.98;;
85544;SDS011;75982;52.834;13.846;2024-03-07T02:54:43;81.70;;;27.80;;
85544;SDS011;75982;52.834;13.846;2024-03-07T02:57:11;81.53;;;28.23;;
85544;SDS011;75982;52.834;13.846;2024-03-07T02:59:38;75.05;;;27.80;;
85544;SDS011;75982;52.834;13.846;2024-03-07T03:02:05;76.57;;;28.67;;
85544;SDS011;75982;52.834;13.846;2024-03-07T03:04:31;78.13;;;27.40;;
85544;SDS011;75982;52.834;13.846;2024-03-07T03:06:58;75.07;;;26.23;;
85544;SDS011;75982;52.834;13.846;2024-03-07T03:09:25;75.72;;;26.30;;
85544;SDS011;75982;52.834;13.846;2024-03-07T03:11:51;76.50;;;26.73;;
85544;SDS011;75982;52.834;13.846;2024-03-07T03:14:20;71.40;;;26.85;;
85544;SDS011;75982;52.834;13.846;2024-03-07T03:16:46;76.15;;;25.70;;
85544;SDS011;75982;52.834;13.846;2024-03-07T03:19:14;73.03;;;26.33;;
85544;SDS011;75982;52.834;13.846;2024-03-07T03:21:41;75.45;;;26.27;;
85544;SDS011;75982;52.834;13.846;2024-03-07T03:24:07;75.90;;;26.55;;
85544;SDS011;75982;52.834;13.846;2024-03-07T03:26:34;80.68;;;26.42;;
85544;SDS011;75982;52.834;13.846;2024-03-07T03:29:01;71.00;;;26.42;;
85544;SDS011;75982;52.834;13.846;2024-03-07T03:31:29;79.38;;;27.45;;
85544;SDS011;75982;52.834;13.846;2024-03-07T03:33:55;73.78;;;26.05;;
85544;SDS011;75982;52.834;13.846;2024-03-07T03:36:22;77.25;;;27.42;;
85544;SDS011;75982;52.834;13.846;2024-03-07T03:38:49;67.68;;;26.05;;
85544;SDS011;75982;52.834;13.846;2024-03-07T03:41:15;72.28;;;25.90;;
85544;SDS011;75982;52.834;13.846;2024-03-07T03:43:42;81.05;;;25.10;;
85544;SDS011;75982;52.834;13.846;2024-03-07T03:46:09;72.57;;;25.23;;
85544;SDS011;75982;52.834;13.846;2024-03-07T03:48:37;70.75;;;24.48;;
85544;SDS011;75982;52.834;13.846;2024-03-07T03:51:06;65.28;;;24.58;;
85544;SDS011;75982;52.834;13.846;2024-03-07T03:53:33;72.60;;;25.88;;
85544;SDS011;75982;52.834;13.846;2024-03-07T03:56:00;62.22;;;25.08;;
85544;SDS011;75982;52.834;13.846;2024-03-07T03:58:26;63.10;;;23.92;;
85544;SDS011;75982;52.834;13.846;2024-03-07T04:00:53;62.88;;;24.55;;
85544;SDS011;75982;52.834;13.846;2024-03-07T04:03:20;75.03;;;24.40;;
85544;SDS011;75982;52.834;13.846;2024-03-07T04:05:48;76.53;;;26.08;;
85544;SDS011;75982;52.834;13.846;2024-03-07T04:08:14;67.22;;;24.67;;
85544;SDS011;75982;52.834;13.846;2024-03-07T04:10:41;71.75;;;24.92;;
85544;SDS011;75982;52.834;13.846;2024-03-07T04:13:08;72.10;;;24.77;;
85544;SDS011;75982;52.834;13.846;2024-03-07T04:15:34;74.22;;;25.67;;
85544;SDS011;75982;52.834;13.846;2024-03-07T04:18:03;75.43;;;24.98;;
85544;SDS011;75982;52.834;13.846;2024-03-07T04:20:30;68.75;;;24.55;;
85544;SDS011;75982;52.834;13.846;2024-03-07T04:22:58;63.13;;;24.55;;
85544;SDS011;75982;52.834;13.846;2024-03-07T04:25:25;61.67;;;23.70;;
85544;SDS011;75982;52.834;13.846;2024-03-07T04:27:51;65.18;;;24.20;;
85544;SDS011;75982;52.834;13.846;2024-03-07T04:30:18;64.93;;;24.73;;
85544;SDS011;75982;52.834;13.846;2024-03-07T04:32:45;69.05;;;23.60;;
85544;SDS011;75982;52.834;13.846;2024-03-07T04:37:45;59.63;;;21.25;;
85544;SDS011;75982;52.834;13.846;2024-03-07T04:40:13;70.25;;;23.83;;
85544;SDS011;75982;52.834;13.846;2024-03-07T04:42:41;59.35;;;21.15;;
85544;SDS011;75982;52.834;13.846;2024-03-07T04:45:08;68.85;;;23.88;;
85544;SDS011;75982;52.834;13.846;2024-03-07T04:47:35;69.40;;;24.20;;
85544;SDS011;75982;52.834;13.846;2024-03-07T04:50:02;74.45;;;23.55;;
85544;SDS011;75982;52.834;13.846;2024-03-07T04:52:30;64.05;;;23.23;;
85544;SDS011;75982;52.834;13.846;2024-03-07T04:54:56;58.42;;;21.45;;
85544;SDS011;75982;52.834;13.846;2024-03-07T04:57:24;66.72;;;22.42;;
85544;SDS011;75982;52.834;13.846;2024-03-07T04:59:51;61.72;;;22.98;;
85544;SDS011;75982;52.834;13.846;2024-03-07T05:02:18;70.10;;;23.40;;
85544;SDS011;75982;52.834;13.846;2024-03-07T05:04:44;63.22;;;23.00;;
85544;SDS011;75982;52.834;13.846;2024-03-07T05:07:11;57.72;;;21.95;;
85544;SDS011;75982;52.834;13.846;2024-03-07T05:09:38;58.83;;;22.92;;
85544;SDS011;75982;52.834;13.846;2024-03-07T05:12:04;62.75;;;23.33;;
85544;SDS011;75982;52.834;13.846;2024-03-07T05:14:33;65.38;;;21.83;;
85544;SDS011;75982;52.834;13.846;2024-03-07T05:17:01;61.05;;;22.27;;
85544;SDS011;75982;52.834;13.846;2024-03-07T05:19:28;63.15;;;22.27;;
85544;SDS011;75982;52.834;13.846;2024-03-07T05:21:55;59.83;;;21.77;;
85544;SDS011;75982;52.834;13.846;2024-03-07T05:24:22;61.83;;;21.73;;
85544;SDS011;75982;52.834;13.846;2024-03-07T05:26:50;71.95;;;23.42;;
85544;SDS011;75982;52.834;13.846;2024-03-07T05:29:17;61.13;;;22.48;;
85544;SDS011;75982;52.834;13.846;2024-03-07T05:31:45;55.88;;;21.77;;
85544;SDS011;75982;52.834;13.846;2024-03-07T05:34:12;52.47;;;20.48;;
85544;SDS011;75982;52.834;13.846;2024-03-07T05:36:39;63.47;;;19.38;;
85544;SDS011;75982;52.834;13.846;2024-03-07T05:39:06;50.28;;;20.42;;
85544;SDS011;75982;52.834;13.846;2024-03-07T05:41:33;60.78;;;21.65;;
85544;SDS011;75982;52.834;13.846;2024-03-07T05:44:00;60.88;;;22.55;;
85544;SDS011;75982;52.834;13.846;2024-03-07T05:46:26;56.83;;;20.77;;
85544;SDS011;75982;52.834;13.846;2024-03-07T05:48:55;57.33;;;21.27;;
85544;SDS011;75982;52.834;13.846;2024-03-07T05:51:22;56.47;;;21.77;;
85544;SDS011;75982;52.834;13.846;2024-03-07T05:53:48;65.25;;;22.38;;
85544;SDS011;75982;52.834;13.846;2024-03-07T05:56:15;57.78;;;21.70;;
85544;SDS011;75982;52.834;13.846;2024-03-07T05:58:42;61.85;;;21.17;;
85544;SDS011;75982;52.834;13.846;2024-03-07T06:01:08;61.92;;;20.58;;
85544;SDS011;75982;52.834;13.846;2024-03-07T06:03:36;59.83;;;20.85;;
85544;SDS011;75982;52.834;13.846;2024-03-07T06:06:05;57.17;;;20.42;;
85544;SDS011;75982;52.834;13.846;2024-03-07T06:08:31;59.28;;;23.23;;
85544;SDS011;75982;52.834;13.846;2024-03-07T06:10:59;58.45;;;22.38;;
85544;SDS011;75982;52.834;13.846;2024-03-07T06:13:25;65.10;;;22.33;;
85544;SDS011;75982;52.834;13.846;2024-03-07T06:15:52;58.40;;;21.52;;
85544;SDS011;75982;52.834;13.846;2024-03-07T06:18:18;64.22;;;21.90;;
85544;SDS011;75982;52.834;13.846;2024-03-07T06:20:45;58.85;;;20.10;;
85544;SDS011;75982;52.834;13.846;2024-03-07T06:23:13;62.75;;;19.60;;
85544;SDS011;75982;52.834;13.846;2024-03-07T06:25:40;60.45;;;21.48;;
85544;SDS011;75982;52.834;13.846;2024-03-07T06:28:07;63.28;;;21.30;;
85544;SDS011;75982;52.834;13.846;2024-03-07T06:30:33;59.22;;;21.00;;
85544;SDS011;75982;52.834;13.846;2024-03-07T06:33:01;55.85;;;20.67;;
85544;SDS011;75982;52.834;13.846;2024-03-07T06:35:28;56.33;;;19.42;;
85544;SDS011;75982;52.834;13.846;2024-03-07T06:37:55;59.67;;;19.88;;
85544;SDS011;75982;52.834;13.846;2024-03-07T06:40:23;65.75;;;21.08;;
85544;SDS011;75982;52.834;13.846;2024-03-07T06:42:50;56.22;;;20.85;;
85544;SDS011;75982;52.834;13.846;2024-03-07T06:45:16;50.85;;;19.38;;
85544;SDS011;75982;52.834;13.846;2024-03-07T06:47:43;53.13;;;19.60;;
85544;SDS011;75982;52.834;13.846;2024-03-07T06:50:10;60.00;;;21.02;;
85544;SDS011;75982;52.834;13.846;2024-03-07T06:52:52;56.63;;;19.73;;
85544;SDS011;75982;52.834;13.846;2024-03-07T06:55:19;49.75;;;18.98;;
85544;SDS011;75982;52.834;13.846;2024-03-07T06:57:47;54.35;;;19.55;;
85544;SDS011;75982;52.834;13.846;2024-03-07T07:00:14;43.75;;;18.27;;
85544;SDS011;75982;52.834;13.846;2024-03-07T07:02:41;50.58;;;19.63;;
85544;SDS011;75982;52.834;13.846;2024-03-07T07:05:08;62.83;;;22.88;;
85544;SDS011;75982;52.834;13.846;2024-03-07T07:07:35;71.00;;;25.70;;
85544;SDS011;75982;52.834;13.846;2024-03-07T07:10:01;234.63;;;37.22;;
85544;SDS011;75982;52.834;13.846;2024-03-07T07:12:28;52.40;;;20.90;;
85544;SDS011;75982;52.834;13.846;2024-03-07T07:14:56;40.03;;;17.67;;
85544;SDS011;75982;52.834;13.846;2024-03-07T07:17:23;43.42;;;17.83;;
85544;SDS011;75982;52.834;13.846;2024-03-07T07:19:50;41.63;;;16.90;;
85544;SDS011;75982;52.834;13.846;2024-03-07T07:22:17;39.15;;;17.33;;
85544;SDS011;75982;52.834;13.846;2024-03-07T07:24:43;36.22;;;16.67;;
85544;SDS011;75982;52.834;13.846;2024-03-07T07:27:10;36.05;;;15.73;;
85544;SDS011;75982;52.834;13.846;2024-03-07T07:29:36;35.53;;;15.82;;
85544;SDS011;75982;52.834;13.846;2024-03-07T07:32:05;35.67;;;15.02;;
85544;SDS011;75982;52.834;13.846;2024-03-07T07:34:32;34.83;;;15.90;;
85544;SDS011;75982;52.834;13.846;2024-03-07T07:36:59;29.10;;;14.73;;
85544;SDS011;75982;52.834;13.846;2024-03-07T08:41:32;27.55;;;12.40;;
85544;SDS011;75982;52.834;13.846;2024-03-07T08:43:59;26.30;;;10.95;;
85544;SDS011;75982;52.834;13.846;2024-03-07T08:46:25;20.85;;;11.55;;
85544;SDS011;75982;52.834;13.846;2024-03-07T08:48:52;21.90;;;12.65;;
85544;SDS011;75982;52.834;13.846;2024-03-07T08:53:54;19.98;;;11.13;;
85544;SDS011;75982;52.834;13.846;2024-03-07T08:56:21;25.25;;;11.68;;
85544;SDS011;75982;52.834;13.846;2024-03-07T08:58:49;24.23;;;12.43;;
85544;SDS011;75982;52.834;13.846;2024-03-07T09:01:15;23.05;;;12.00;;
85544;SDS011;75982;52.834;13.846;2024-03-07T09:03:42;19.70;;;11.48;;
85544;SDS011;75982;52.834;13.846;2024-03-07T09:06:09;24.88;;;11.68;;
85544;SDS011;75982;52.834;13.846;2024-03-07T09:08:36;25.27;;;12.45;;
85544;SDS011;75982;52.834;13.846;2024-03-07T09:11:03;22.83;;;11.93;;
85544;SDS011;75982;52.834;13.846;2024-03-07T09:13:29;20.30;;;11.57;;
85544;SDS011;75982;52.834;13.846;2024-03-07T09:15:57;21.50;;;12.20;;
85544;SDS011;75982;52.834;13.846;2024-03-07T09:18:24;22.08;;;11.80;;
85544;SDS011;75982;52.834;13.846;2024-03-07T09:20:51;24.55;;;12.57;;
85544;SDS011;75982;52.834;13.846;2024-03-07T09:23:18;19.38;;;11.57;;
85544;SDS011;75982;52.834;13.846;2024-03-07T09:25:44;23.98;;;12.50;;
85544;SDS011;75982;52.834;13.846;2024-03-07T09:28:11;20.20;;;11.48;;
85544;SDS011;75982;52.834;13.846;2024-03-07T09:30:38;23.50;;;11.77;;
85544;SDS011;75982;52.834;13.846;2024-03-07T09:33:07;19.15;;;10.88;;
85544;SDS011;75982;52.834;13.846;2024-03-07T09:35:34;19.92;;;10.93;;
85544;SDS011;75982;52.834;13.846;2024-03-07T09:38:01;17.25;;;9.50;;
85544;SDS011;75982;52.834;13.846;2024-03-07T09:40:27;24.00;;;12.00;;
85544;SDS011;75982;52.834;13.846;2024-03-07T09:42:54;22.35;;;11.93;;
85544;SDS011;75982;52.834;13.846;2024-03-07T09:45:23;21.02;;;11.20;;
85544;SDS011;75982;52.834;13.846;2024-03-07T09:47:55;18.70;;;10.80;;
85544;SDS011;75982;52.834;13.846;2024-03-07T09:50:24;18.13;;;10.57;;
85544;SDS011;75982;52.834;13.846;2024-03-07T09:52:52;21.13;;;11.43;;
85544;SDS011;75982;52.834;13.846;2024-03-07T09:55:21;19.15;;;10.60;;
85544;SDS011;75982;52.834;13.846;2024-03-07T09:57:48;18.23;;;10.65;;
85544;SDS011;75982;52.834;13.846;2024-03-07T10:00:16;19.73;;;10.68;;
85544;SDS011;75982;52.834;13.846;2024-03-07T10:02:44;19.40;;;11.10;;
85544;SDS011;75982;52.834;13.846;2024-03-07T10:05:12;16.20;;;9.68;;
85544;SDS011;75982;52.834;13.846;2024-03-07T10:07:43;17.77;;;9.32;;
85544;SDS011;75982;52.834;13.846;2024-03-07T10:10:09;16.98;;;9.82;;
85544;SDS011;75982;52.834;13.846;2024-03-07T10:12:36;15.30;;;9.80;;
85544;SDS011;75982;52.834;13.846;2024-03-07T10:15:03;19.95;;;9.80;;
85544;SDS011;75982;52.834;13.846;2024-03-07T10:17:31;15.90;;;10.10;;
85544;SDS011;75982;52.834;13.846;2024-03-07T10:19:57;17.20;;;10.43;;
85544;SDS011;75982;52.834;13.846;2024-03-07T10:22:24;21.48;;;10.30;;
85544;SDS011;75982;52.834;13.846;2024-03-07T10:24:52;16.33;;;9.60;;
85544;SDS011;75982;52.834;13.846;2024-03-07T10:27:22;15.50;;;8.82;;
85544;SDS011;75982;52.834;13.846;2024-03-07T10:29:51;18.27;;;10.27;;
85544;SDS011;75982;52.834;13.846;2024-03-07T10:32:19;14.80;;;8.85;;
85544;SDS011;75982;52.834;13.846;2024-03-07T10:34:46;17.42;;;9.32;;
85544;SDS011;75982;52.834;13.846;2024-03-07T10:37:12;16.27;;;9.85;;
85544;SDS011;75982;52.834;13.846;2024-03-07T10:39:39;15.30;;;9.85;;
85544;SDS011;75982;52.834;13.846;2024-03-07T10:42:07;13.82;;;8.85;;
85544;SDS011;75982;52.834;13.846;2024-03-07T10:44:39;15.82;;;9.18;;
85544;SDS011;75982;52.834;13.846;2024-03-07T10:47:09;12.18;;;8.07;;
85544;SDS011;75982;52.834;13.846;2024-03-07T10:49:43;16.48;;;9.30;;
85544;SDS011;75982;52.834;13.846;2024-03-07T10:52:23;23.67;;;9.98;;
85544;SDS011;75982;52.834;13.846;2024-03-07T10:54:58;22.25;;;10.13;;
85544;SDS011;75982;52.834;13.846;2024-03-07T10:57:44;15.35;;;9.75;;
85544;SDS011;75982;52.834;13.846;2024-03-07T11:00:16;15.48;;;9.07;;
85544;SDS011;75982;52.834;13.846;2024-03-07T11:02:45;17.85;;;9.90;;
85544;SDS011;75982;52.834;13.846;2024-03-07T11:07:40;22.65;;;10.93;;
85544;SDS011;75982;52.834;13.846;2024-03-07T11:10:07;14.55;;;9.35;;
85544;SDS011;75982;52.834;13.846;2024-03-07T11:15:04;14.45;;;9.73;;
85544;SDS011;75982;52.834;13.846;2024-03-07T11:17:34;15.73;;;9.52;;
85544;SDS011;75982;52.834;13.846;2024-03-07T11:20:20;18.25;;;9.02;;
85544;SDS011;75982;52.834;13.846;2024-03-07T11:22:47;15.05;;;8.93;;
85544;SDS011;75982;52.834;13.846;2024-03-07T11:25:17;15.43;;;9.30;;
85544;SDS011;75982;52.834;13.846;2024-03-07T11:27:50;17.83;;;9.05;;
85544;SDS011;75982;52.834;13.846;2024-03-07T11:30:19;16.33;;;9.60;;
85544;SDS011;75982;52.834;13.846;2024-03-07T11:32:45;15.82;;;9.98;;
85544;SDS011;75982;52.834;13.846;2024-03-07T11:35:12;18.70;;;9.77;;
85544;SDS011;75982;52.834;13.846;2024-03-07T11:37:40;18.85;;;9.55;;
85544;SDS011;75982;52.834;13.846;2024-03-07T11:40:08;15.48;;;9.20;;
85544;SDS011;75982;52.834;13.846;2024-03-07T11:42:35;16.63;;;9.90;;
85544;SDS011;75982;52.834;13.846;2024-03-07T11:45:02;13.95;;;9.38;;
85544;SDS011;75982;52.834;13.846;2024-03-07T11:47:36;18.58;;;9.18;;
85544;SDS011;75982;52.834;13.846;2024-03-07T11:50:04;19.42;;;9.27;;
85544;SDS011;75982;52.834;13.846;2024-03-07T11:52:31;14.85;;;8.88;;
85544;SDS011;75982;52.834;13.846;2024-03-07T11:54:58;18.25;;;9.88;;
85544;SDS011;75982;52.834;13.846;2024-03-07T11:57:24;14.52;;;9.13;;
85544;SDS011;75982;52.834;13.846;2024-03-07T11:59:51;17.77;;;9.38;;
85544;SDS011;75982;52.834;13.846;2024-03-07T12:02:19;17.83;;;9.75;;
85544;SDS011;75982;52.834;13.846;2024-03-07T12:04:47;16.42;;;9.52;;
85544;SDS011;75982;52.834;13.846;2024-03-07T12:07:14;14.57;;;9.40;;
85544;SDS011;75982;52.834;13.846;2024-03-07T12:09:41;14.68;;;9.35;;
85544;SDS011;75982;52.834;13.846;2024-03-07T12:12:08;14.18;;;9.05;;
85544;SDS011;75982;52.834;13.846;2024-03-07T12:14:35;16.15;;;9.52;;
85544;SDS011;75982;52.834;13.846;2024-03-07T12:17:01;15.60;;;9.82;;
85544;SDS011;75982;52.834;13.846;2024-03-07T12:19:28;20.45;;;9.77;;
85544;SDS011;75982;52.834;13.846;2024-03-07T12:21:59;17.95;;;9.90;;
85544;SDS011;75982;52.834;13.846;2024-03-07T12:24:26;18.48;;;9.98;;
85544;SDS011;75982;52.834;13.846;2024-03-07T12:27:03;18.85;;;10.07;;
85544;SDS011;75982;52.834;13.846;2024-03-07T12:29:31;16.10;;;9.85;;
85544;SDS011;75982;52.834;13.846;2024-03-07T12:31:57;20.20;;;9.40;;
85544;SDS011;75982;52.834;13.846;2024-03-07T12:34:24;16.85;;;9.50;;
85544;SDS011;75982;52.834;13.846;2024-03-07T12:36:55;15.05;;;9.00;;
85544;SDS011;75982;52.834;13.846;2024-03-07T12:39:23;17.50;;;10.23;;
85544;SDS011;75982;52.834;13.846;2024-03-07T12:41:50;15.73;;;9.73;;
85544;SDS011;75982;52.834;13.846;2024-03-07T12:44:17;17.60;;;9.15;;
85544;SDS011;75982;52.834;13.846;2024-03-07T12:46:45;15.77;;;9.65;;
85544;SDS011;75982;52.834;13.846;2024-03-07T12:49:12;14.45;;;9.05;;
85544;SDS011;75982;52.834;13.846;2024-03-07T12:51:39;14.48;;;9.20;;
85544;SDS011;75982;52.834;13.846;2024-03-07T12:54:05;16.02;;;8.88;;
85544;SDS011;75982;52.834;13.846;2024-03-07T12:56:34;15.70;;;8.48;;
85544;SDS011;75982;52.834;13.846;2024-03-07T12:59:00;15.35;;;8.90;;
85544;SDS011;75982;52.834;13.846;2024-03-07T13:01:27;15.52;;;9.20;;
85544;SDS011;75982;52.834;13.846;2024-03-07T13:03:54;20.60;;;9.90;;
85544;SDS011;75982;52.834;13.846;2024-03-07T13:06:20;14.70;;;8.95;;
85544;SDS011;75982;52.834;13.846;2024-03-07T13:08:47;14.95;;;8.82;;
85544;SDS011;75982;52.834;13.846;2024-03-07T13:11:14;13.77;;;9.18;;
85544;SDS011;75982;52.834;13.846;2024-03-07T13:13:42;16.80;;;8.68;;
85544;SDS011;75982;52.834;13.846;2024-03-07T13:16:09;19.23;;;9.32;;
85544;SDS011;75982;52.834;13.846;2024-03-07T13:18:35;19.58;;;9.45;;
85544;SDS011;75982;52.834;13.846;2024-03-07T13:21:04;16.08;;;9.18;;
85544;SDS011;75982;52.834;13.846;2024-03-07T13:23:31;17.13;;;10.63;;
85544;SDS011;75982;52.834;13.846;2024-03-07T13:25:58;18.05;;;9.40;;
85544;SDS011;75982;52.834;13.846;2024-03-07T13:28:25;17.42;;;9.82;;
85544;SDS011;75982;52.834;13.846;2024-03-07T13:30:54;15.40;;;9.07;;
85544;SDS011;75982;52.834;13.846;2024-03-07T13:33:20;16.92;;;9.20;;
85544;SDS011;75982;52.834;13.846;2024-03-07T13:35:48;22.67;;;11.10;;
85544;SDS011;75982;52.834;13.846;2024-03-07T13:38:14;17.40;;;9.48;;
85544;SDS011;75982;52.834;13.846;2024-03-07T13:40:41;15.80;;;10.50;;
85544;SDS011;75982;52.834;13.846;2024-03-07T13:43:08;18.70;;;10.77;;
85544;SDS011;75982;52.834;13.846;2024-03-07T13:45:35;14.75;;;9.25;;
85544;SDS011;75982;52.834;13.846;2024-03-07T13:48:05;17.75;;;10.88;;
85544;SDS011;75982;52.834;13.846;2024-03-07T13:50:34;16.80;;;10.57;;
85544;SDS011;75982;52.834;13.846;2024-03-07T13:53:21;17.73;;;9.52;;
85544;SDS011;75982;52.834;13.846;2024-03-07T13:55:50;17.15;;;9.18;;
85544;SDS011;75982;52.834;13.846;2024-03-07T13:58:34;16.77;;;10.52;;
85544;SDS011;75982;52.834;13.846;2024-03-07T14:01:18;17.85;;;10.40;;
85544;SDS011;75982;52.834;13.846;2024-03-07T14:04:09;14.98;;;8.13;;
85544;SDS011;75982;52.834;13.846;2024-03-07T14:06:54;15.60;;;8.35;;
85544;SDS011;75982;52.834;13.846;2024-03-07T14:09:58;24.90;;;8.93;;
85544;SDS011;75982;52.834;13.846;2024-03-07T14:12:47;15.93;;;9.32;;
85544;SDS011;75982;52.834;13.846;2024-03-07T14:18:54;16.00;;;8.35;;
85544;SDS011;75982;52.834;13.846;2024-03-07T14:21:58;15.45;;;8.95;;
85544;SDS011;75982;52.834;13.846;2024-03-07T14:27:50;14.45;;;8.57;;
85544;SDS011;75982;52.834;13.846;2024-03-07T14:30:36;15.98;;;9.05;;
85544;SDS011;75982;52.834;13.846;2024-03-07T14:33:06;17.23;;;9.73;;
85544;SDS011;75982;52.834;13.846;2024-03-07T14:38:27;16.35;;;9.90;;
85544;SDS011;75982;52.834;13.846;2024-03-07T14:41:04;17.88;;;9.48;;
85544;SDS011;75982;52.834;13.846;2024-03-07T14:43:30;14.82;;;9.02;;
85544;SDS011;75982;52.834;13.846;2024-03-07T14:45:57;16.50;;;9.88;;
85544;SDS011;75982;52.834;13.846;2024-03-07T14:48:24;16.27;;;9.77;;
85544;SDS011;75982;52.834;13.846;2024-03-07T14:50:52;14.50;;;9.43;;
85544;SDS011;75982;52.834;13.846;2024-03-07T14:53:19;13.50;;;8.73;;
85544;SDS011;75982;52.834;13.846;2024-03-07T14:55:46;15.60;;;9.07;;
85544;SDS011;75982;52.834;13.846;2024-03-07T14:58:12;16.13;;;8.75;;
85544;SDS011;75982;52.834;13.846;2024-03-07T15:00:39;15.43;;;8.85;;
85544;SDS011;75982;52.834;13.846;2024-03-07T15:03:07;16.02;;;9.45;;
85544;SDS011;75982;52.834;13.846;2024-03-07T15:05:35;15.35;;;9.88;;
85544;SDS011;75982;52.834;13.846;2024-03-07T15:08:03;16.90;;;9.52;;
85544;SDS011;75982;52.834;13.846;2024-03-07T15:10:31;15.10;;;9.27;;
85544;SDS011;75982;52.834;13.846;2024-03-07T15:13:00;14.93;;;9.50;;
85544;SDS011;75982;52.834;13.846;2024-03-07T15:15:26;12.75;;;8.65;;
85544;SDS011;75982;52.834;13.846;2024-03-07T15:17:53;17.08;;;9.23;;
85544;SDS011;75982;52.834;13.846;2024-03-07T15:20:20;16.08;;;9.60;;
85544;SDS011;75982;52.834;13.846;2024-03-07T15:22:46;13.43;;;8.35;;
85544;SDS011;75982;52.834;13.846;2024-03-07T15:25:15;13.30;;;7.90;;
85544;SDS011;75982;52.834;13.846;2024-03-07T15:27:42;14.00;;;8.40;;
85544;SDS011;75982;52.834;13.846;2024-03-07T15:30:09;15.05;;;8.82;;
85544;SDS011;75982;52.834;13.846;2024-03-07T15:32:36;14.82;;;8.25;;
85544;SDS011;75982;52.834;13.846;2024-03-07T15:35:03;17.73;;;8.85;;
85544;SDS011;75982;52.834;13.846;2024-03-07T15:37:30;12.23;;;7.82;;
85544;SDS011;75982;52.834;13.846;2024-03-07T15:39:56;16.67;;;8.20;;